createdAt,value
2023-01-17T00:02:08.802Z,0.61
2023-01-17T00:04:35.513Z,0.64
2023-01-17T00:07:02.150Z,0.71
2023-01-17T00:09:28.800Z,0.56
2023-01-17T00:11:55.708Z,0.59
2023-01-17T00:14:22.336Z,0.44
2023-01-17T00:16:48.967Z,0.36
2023-01-17T00:19:15.568Z,0.24
2023-01-17T00:21:42.204Z,0.27
2023-01-17T00:24:08.836Z,0.39
2023-01-17T00:26:35.487Z,0.27
2023-01-17T00:29:02.136Z,0.23
2023-01-17T00:31:28.787Z,0.29
2023-01-17T00:33:55.485Z,0.20
2023-01-17T00:36:22.123Z,0.25
2023-01-17T00:38:48.730Z,0.30
2023-01-17T00:41:15.431Z,0.24
2023-01-17T00:43:42.063Z,0.17
2023-01-17T00:46:08.707Z,0.21
2023-01-17T00:48:35.355Z,0.30
2023-01-17T00:51:03.196Z,0.23
2023-01-17T00:53:30.072Z,0.40
2023-01-17T00:56:00.089Z,0.18
2023-01-17T00:58:26.731Z,0.17
2023-01-17T01:00:53.473Z,0.22
2023-01-17T01:03:20.145Z,0.17
2023-01-17T01:05:46.778Z,0.20
2023-01-17T01:08:24.208Z,0.19
2023-01-17T01:10:50.832Z,0.22
2023-01-17T01:13:17.456Z,0.20
2023-01-17T01:15:44.094Z,0.51
2023-01-17T01:18:11.382Z,0.51
2023-01-17T01:20:38.021Z,0.66
2023-01-17T01:23:07.661Z,0.49
2023-01-17T01:25:35.682Z,0.36
2023-01-17T01:28:06.348Z,0.24
2023-01-17T01:30:33.034Z,0.23
2023-01-17T01:32:59.670Z,0.24
2023-01-17T01:35:26.436Z,0.28
2023-01-17T01:37:53.085Z,0.24
2023-01-17T01:40:19.721Z,0.25
2023-01-17T01:42:53.075Z,0.22
2023-01-17T01:45:22.200Z,0.23
2023-01-17T01:47:48.933Z,0.24
2023-01-17T01:50:15.602Z,0.19
2023-01-17T01:52:45.544Z,0.31
2023-01-17T01:55:15.852Z,0.64
2023-01-17T01:57:43.813Z,1.12
2023-01-17T02:00:15.934Z,1.33
2023-01-17T02:02:42.980Z,1.22
2023-01-17T02:05:09.897Z,1.32
2023-01-17T02:08:04.063Z,1.24
2023-01-17T02:10:38.082Z,1.08
2023-01-17T02:13:04.890Z,1.26
2023-01-17T02:15:50.915Z,1.26
2023-01-17T02:18:26.411Z,1.13
2023-01-17T02:21:14.085Z,1.00
2023-01-17T02:23:53.636Z,1.06
2023-01-17T02:26:31.066Z,0.99
2023-01-17T02:29:17.452Z,0.99
2023-01-17T02:31:47.521Z,0.97
2023-01-17T02:34:46.132Z,0.97
2023-01-17T02:37:19.576Z,1.10
2023-01-17T02:39:51.528Z,0.93
2023-01-17T02:42:19.041Z,0.93
2023-01-17T02:44:45.695Z,0.97
2023-01-17T02:47:28.429Z,0.98
2023-01-17T02:50:02.227Z,0.87
2023-01-17T02:52:52.461Z,1.01
2023-01-17T02:55:27.664Z,0.92
2023-01-17T02:57:54.180Z,0.98
2023-01-17T03:00:22.017Z,1.00
2023-01-17T03:03:07.884Z,0.91
2023-01-17T03:05:39.311Z,0.76
2023-01-17T03:08:05.957Z,0.80
2023-01-17T03:10:32.866Z,0.82
2023-01-17T03:12:59.936Z,0.85
2023-01-17T03:15:26.660Z,0.90
2023-01-17T03:17:53.760Z,0.80
2023-01-17T03:20:22.475Z,0.67
2023-01-17T03:22:49.448Z,0.74
2023-01-17T03:25:16.538Z,0.85
2023-01-17T03:27:43.174Z,0.86
2023-01-17T03:30:10.229Z,0.90
2023-01-17T03:32:36.872Z,1.04
2023-01-17T03:35:03.555Z,1.14
2023-01-17T03:37:30.179Z,0.95
2023-01-17T03:39:56.798Z,1.05
2023-01-17T03:42:23.423Z,1.04
2023-01-17T03:44:50.090Z,1.04
2023-01-17T03:47:16.701Z,0.88
2023-01-17T03:49:43.327Z,0.99
2023-01-17T03:52:10.006Z,0.99
2023-01-17T03:54:36.611Z,0.99
2023-01-17T03:57:03.239Z,0.98
2023-01-17T03:59:29.878Z,0.88
2023-01-17T04:01:56.558Z,1.02
2023-01-17T04:04:23.238Z,1.03
2023-01-17T04:06:49.860Z,0.84
2023-01-17T04:09:16.486Z,0.77
2023-01-17T04:11:43.127Z,0.65
2023-01-17T04:14:09.756Z,0.66
2023-01-17T04:16:36.502Z,0.66
2023-01-17T04:19:03.129Z,0.72
2023-01-17T04:21:29.771Z,0.80
2023-01-17T04:23:56.429Z,0.85
2023-01-17T04:26:23.133Z,0.68
2023-01-17T04:28:49.772Z,0.54
2023-01-17T04:31:16.787Z,0.71
2023-01-17T04:33:43.573Z,0.74
2023-01-17T04:36:10.206Z,0.86
2023-01-17T04:38:37.337Z,0.74
2023-01-17T04:41:03.952Z,0.76
2023-01-17T04:43:30.617Z,0.88
2023-01-17T04:45:57.509Z,0.97
2023-01-17T04:48:24.219Z,0.73
2023-01-17T04:50:51.152Z,0.58
2023-01-17T04:53:17.807Z,0.68
2023-01-17T04:55:47.279Z,0.87
2023-01-17T04:58:13.962Z,0.84
2023-01-17T05:00:40.617Z,0.60
2023-01-17T05:03:07.250Z,0.64
2023-01-17T05:05:33.873Z,0.65
2023-01-17T05:08:00.509Z,0.86
2023-01-17T05:10:27.135Z,0.51
2023-01-17T05:12:57.063Z,0.51
2023-01-17T05:15:23.805Z,0.56
2023-01-17T05:17:51.484Z,0.59
2023-01-17T05:20:18.589Z,0.64
2023-01-17T05:22:45.218Z,0.55
2023-01-17T05:25:11.896Z,0.64
2023-01-17T05:27:38.533Z,0.53
2023-01-17T05:30:05.698Z,0.67
2023-01-17T05:32:32.341Z,0.70
2023-01-17T05:34:58.953Z,0.67
2023-01-17T05:37:25.610Z,0.65
2023-01-17T05:39:52.231Z,0.68
2023-01-17T05:42:18.884Z,0.77
2023-01-17T05:44:45.533Z,0.84
2023-01-17T05:47:12.173Z,0.80
2023-01-17T05:49:38.825Z,0.81
2023-01-17T05:52:09.230Z,0.85
2023-01-17T05:54:35.852Z,0.81
2023-01-17T05:57:03.001Z,0.82
2023-01-17T05:59:36.860Z,0.83
2023-01-17T06:02:04.176Z,0.96
2023-01-17T06:04:30.805Z,0.92
2023-01-17T06:06:57.507Z,0.99
2023-01-17T06:09:24.529Z,1.01
2023-01-17T06:11:51.221Z,0.98
2023-01-17T06:14:17.927Z,0.88
2023-01-17T06:16:44.553Z,1.04
2023-01-17T06:19:11.158Z,1.07
2023-01-17T06:21:37.866Z,1.01
2023-01-17T06:24:04.715Z,1.22
2023-01-17T06:26:31.343Z,1.22
2023-01-17T06:28:58.000Z,0.93
2023-01-17T06:31:24.712Z,1.12
2023-01-17T06:33:51.361Z,1.04
2023-01-17T06:36:18.009Z,1.30
2023-01-17T06:38:44.651Z,1.38
2023-01-17T06:41:11.296Z,1.19
2023-01-17T06:43:37.959Z,1.19
2023-01-17T06:46:04.608Z,1.22
2023-01-17T06:48:31.340Z,1.15
2023-01-17T06:50:57.990Z,1.18
2023-01-17T06:53:24.643Z,1.27
2023-01-17T06:55:51.297Z,1.48
2023-01-17T06:58:17.933Z,1.57
2023-01-17T07:00:44.593Z,1.59
2023-01-17T07:03:21.928Z,1.48
2023-01-17T07:05:48.595Z,1.63
2023-01-17T07:08:15.305Z,1.83
2023-01-17T07:10:41.921Z,1.88
2023-01-17T07:13:08.535Z,1.95
2023-01-17T07:15:35.209Z,2.53
2023-01-17T07:18:02.363Z,2.46
2023-01-17T07:20:29.042Z,2.52
2023-01-17T07:22:55.705Z,2.98
2023-01-17T07:25:22.346Z,3.40
2023-01-17T07:27:49.083Z,3.46
2023-01-17T07:30:15.964Z,3.09
2023-01-17T07:32:42.610Z,3.06
2023-01-17T07:35:09.393Z,2.97
2023-01-17T07:37:36.033Z,2.50
2023-01-17T07:40:02.674Z,2.54
2023-01-17T07:42:29.339Z,2.69
2023-01-17T07:44:55.987Z,2.95
2023-01-17T07:47:22.640Z,2.77
2023-01-17T07:49:49.296Z,2.51
2023-01-17T07:52:18.218Z,2.74
2023-01-17T07:54:45.210Z,2.80
2023-01-17T07:57:12.217Z,2.85
2023-01-17T07:59:38.862Z,3.04
2023-01-17T08:02:05.557Z,3.24
2023-01-17T08:04:32.217Z,3.06
2023-01-17T08:06:58.865Z,2.98
2023-01-17T08:09:25.498Z,2.82
2023-01-17T08:11:52.124Z,4.03
2023-01-17T08:14:18.767Z,4.59
2023-01-17T08:16:45.409Z,3.21
2023-01-17T08:19:12.072Z,3.21
2023-01-17T08:21:38.726Z,3.53
2023-01-17T08:24:05.629Z,4.20
2023-01-17T08:26:32.278Z,4.87
2023-01-17T08:28:59.100Z,3.75
2023-01-17T08:31:26.702Z,3.27
2023-01-17T08:33:53.377Z,3.78
2023-01-17T08:36:20.137Z,3.67
2023-01-17T08:38:46.829Z,3.79
2023-01-17T08:41:13.504Z,3.38
2023-01-17T08:43:40.155Z,3.42
2023-01-17T08:46:06.783Z,4.06
2023-01-17T08:48:33.418Z,4.41
2023-01-17T08:51:01.423Z,4.36
2023-01-17T08:53:28.433Z,4.98
2023-01-17T08:56:01.363Z,4.84
2023-01-17T08:58:30.429Z,5.66
2023-01-17T09:01:01.989Z,6.08
2023-01-17T09:03:29.080Z,5.16
2023-01-17T09:06:02.667Z,3.13
2023-01-17T09:08:29.358Z,2.86
2023-01-17T09:10:56.097Z,3.31
2023-01-17T09:13:22.775Z,2.83
2023-01-17T09:15:49.464Z,2.88
2023-01-17T09:18:16.242Z,2.83
2023-01-17T09:20:42.932Z,3.05
2023-01-17T09:23:09.581Z,3.26
2023-01-17T09:25:36.241Z,3.10
2023-01-17T09:28:02.871Z,3.01
2023-01-17T09:30:29.550Z,3.27
2023-01-17T09:32:56.572Z,3.34
2023-01-17T09:35:23.225Z,2.78
2023-01-17T09:37:52.863Z,2.75
2023-01-17T09:40:21.551Z,2.92
2023-01-17T09:42:50.368Z,2.69
2023-01-17T09:45:17.991Z,2.66
2023-01-17T09:47:46.248Z,3.48
2023-01-17T09:50:22.776Z,4.26
2023-01-17T09:52:49.447Z,3.09
2023-01-17T09:55:16.591Z,2.91
2023-01-17T09:58:02.937Z,2.55
2023-01-17T10:00:47.184Z,2.06
2023-01-17T10:03:46.371Z,1.76
2023-01-17T10:06:23.747Z,1.97
2023-01-17T10:09:05.692Z,1.82
2023-01-17T10:11:38.233Z,1.84
2023-01-17T10:14:10.822Z,1.93
2023-01-17T10:16:44.346Z,1.99
2023-01-17T10:19:16.602Z,2.00
2023-01-17T10:21:59.170Z,3.54
2023-01-17T10:24:51.150Z,4.80
2023-01-17T10:27:34.990Z,2.78
2023-01-17T10:30:02.716Z,2.08
2023-01-17T10:32:29.647Z,2.05
2023-01-17T10:34:56.287Z,2.73
2023-01-17T10:37:39.804Z,3.66
2023-01-17T10:40:29.285Z,3.46
2023-01-17T10:43:23.796Z,2.33
2023-01-17T10:45:55.296Z,2.43
2023-01-17T10:48:45.157Z,2.33
2023-01-17T10:51:20.662Z,1.71
2023-01-17T10:53:55.370Z,1.93
2023-01-17T10:56:23.441Z,2.36
2023-01-17T10:58:50.072Z,2.04
2023-01-17T11:01:20.344Z,2.05
2023-01-17T11:03:50.686Z,1.62
2023-01-17T11:06:24.542Z,1.32
2023-01-17T11:08:54.803Z,1.49
2023-01-17T11:11:25.629Z,1.41
2023-01-17T11:13:53.173Z,1.30
2023-01-17T11:16:24.213Z,5.91
2023-01-17T11:19:08.162Z,6.05
2023-01-17T11:21:35.132Z,4.08
2023-01-17T11:24:09.581Z,3.68
2023-01-17T11:26:36.526Z,4.02
2023-01-17T11:29:32.278Z,2.81
2023-01-17T11:32:30.460Z,1.96
2023-01-17T11:35:15.076Z,1.12
2023-01-17T11:37:48.212Z,1.78
2023-01-17T11:40:21.211Z,1.37
2023-01-17T11:42:47.846Z,1.23
2023-01-17T11:45:25.508Z,1.68
2023-01-17T11:48:15.997Z,1.29
2023-01-17T11:50:47.108Z,1.08
2023-01-17T11:53:21.751Z,1.01
2023-01-17T11:56:15.447Z,1.04
2023-01-17T11:58:42.096Z,0.84
2023-01-17T12:01:28.530Z,1.13
2023-01-17T12:04:10.421Z,1.69
2023-01-17T12:06:57.119Z,1.02
2023-01-17T12:09:40.537Z,0.85
2023-01-17T12:12:13.357Z,0.79
2023-01-17T12:14:54.266Z,1.12
2023-01-17T12:17:58.416Z,0.79
2023-01-17T12:20:35.727Z,0.91
2023-01-17T12:23:02.262Z,0.77
2023-01-17T12:25:50.593Z,0.78
2023-01-17T12:28:30.938Z,0.85
2023-01-17T12:31:33.563Z,0.72
2023-01-17T12:34:23.680Z,0.91
2023-01-17T12:36:55.109Z,1.98
2023-01-17T12:39:25.533Z,2.49
2023-01-17T12:42:18.009Z,2.12
2023-01-17T12:44:50.209Z,1.67
2023-01-17T12:47:16.997Z,1.55
2023-01-17T12:50:20.877Z,1.80
2023-01-17T12:53:22.261Z,1.56
2023-01-17T12:55:50.340Z,1.17
2023-01-17T12:58:25.320Z,1.23
2023-01-17T13:01:22.244Z,1.73
2023-01-17T13:04:18.484Z,1.00
2023-01-17T13:07:02.258Z,0.89
2023-01-17T13:09:35.415Z,0.96
2023-01-17T13:12:04.793Z,0.75
2023-01-17T13:14:31.456Z,0.79
2023-01-17T13:16:59.454Z,0.80
2023-01-17T13:19:31.254Z,0.82
2023-01-17T13:21:57.894Z,0.82
2023-01-17T13:24:42.336Z,1.04
2023-01-17T13:27:21.408Z,1.13
2023-01-17T13:29:56.805Z,1.37
2023-01-17T13:32:43.022Z,1.44
2023-01-17T13:35:14.036Z,1.74
2023-01-17T13:38:05.903Z,2.11
2023-01-17T13:41:03.750Z,1.21
2023-01-17T13:43:38.396Z,1.22
2023-01-17T13:46:05.229Z,0.81
2023-01-17T13:48:33.736Z,0.63
2023-01-17T13:51:01.066Z,0.62
2023-01-17T13:53:36.908Z,0.71
2023-01-17T13:56:13.077Z,0.77
2023-01-17T13:58:45.686Z,0.76
2023-01-17T14:01:12.595Z,0.78
2023-01-17T14:03:51.321Z,0.71
2023-01-17T14:06:34.045Z,0.84
2023-01-17T14:09:13.937Z,0.67
2023-01-17T14:12:00.635Z,0.86
2023-01-17T14:14:42.279Z,0.72
2023-01-17T14:17:17.898Z,1.00
2023-01-17T14:19:48.324Z,1.81
2023-01-17T14:22:21.239Z,5.10
2023-01-17T14:25:09.485Z,1.45
2023-01-17T14:28:03.044Z,2.19
2023-01-17T14:30:34.500Z,11.94
2023-01-17T14:33:15.480Z,16.24
2023-01-17T14:35:56.473Z,5.68
2023-01-17T14:38:26.981Z,52.17
2023-01-17T14:40:57.956Z,18.57
2023-01-17T14:43:25.761Z,3.53
2023-01-17T14:45:59.093Z,3.80
2023-01-17T14:48:26.010Z,4.25
2023-01-17T14:50:53.977Z,3.35
2023-01-17T14:53:38.782Z,1.46
2023-01-17T14:56:16.801Z,1.11
2023-01-17T14:58:43.427Z,1.31
2023-01-17T15:01:20.210Z,1.37
2023-01-17T15:03:51.855Z,1.74
2023-01-17T15:06:19.001Z,2.38
2023-01-17T15:08:45.667Z,1.77
2023-01-17T15:11:18.600Z,9.58
2023-01-17T15:13:47.167Z,10.00
2023-01-17T15:16:20.828Z,1.85
2023-01-17T15:18:47.554Z,3.04
2023-01-17T15:21:18.775Z,0.79
2023-01-17T15:23:48.318Z,0.94
2023-01-17T15:26:16.702Z,0.97
2023-01-17T15:28:43.638Z,0.90
2023-01-17T15:31:12.778Z,0.93
2023-01-17T15:33:41.781Z,0.71
2023-01-17T15:36:25.206Z,0.57
2023-01-17T15:38:58.668Z,0.84
2023-01-17T15:41:26.883Z,0.81
2023-01-17T15:43:53.548Z,0.71
2023-01-17T15:46:24.249Z,0.79
2023-01-17T15:48:50.951Z,0.98
2023-01-17T15:51:30.511Z,4.26
2023-01-17T15:53:57.164Z,1.64
2023-01-17T15:56:26.626Z,1.42
2023-01-17T15:58:53.375Z,4.03
2023-01-17T16:01:26.021Z,2.02
2023-01-17T16:03:54.185Z,1.60
2023-01-17T16:06:36.486Z,2.23
2023-01-17T16:09:03.129Z,1.58
2023-01-17T16:11:29.894Z,0.96
2023-01-17T16:13:56.533Z,1.12
2023-01-17T16:16:23.752Z,1.60
2023-01-17T16:18:56.513Z,1.15
2023-01-17T16:21:27.823Z,2.25
2023-01-17T16:23:54.490Z,2.76
2023-01-17T16:26:21.153Z,1.68
2023-01-17T16:28:47.762Z,1.23
2023-01-17T16:31:14.544Z,1.30
2023-01-17T16:33:41.190Z,1.08
2023-01-17T16:36:14.222Z,1.11
2023-01-17T16:38:41.090Z,2.72
2023-01-17T16:41:07.731Z,2.13
2023-01-17T16:43:34.353Z,2.90
2023-01-17T16:46:01.035Z,2.79
2023-01-17T16:48:27.703Z,3.40
2023-01-17T16:50:54.321Z,3.49
2023-01-17T16:53:25.416Z,3.32
2023-01-17T16:55:53.970Z,3.71
2023-01-17T16:58:20.596Z,3.99
2023-01-17T17:00:47.924Z,3.63
2023-01-17T17:03:18.489Z,2.67
2023-01-17T17:05:45.237Z,2.99
2023-01-17T17:08:11.865Z,3.65
2023-01-17T17:10:38.500Z,3.04
2023-01-17T17:13:05.201Z,2.34
2023-01-17T17:15:31.911Z,2.36
2023-01-17T17:17:58.549Z,2.33
2023-01-17T17:20:25.354Z,2.77
2023-01-17T17:22:52.070Z,4.26
2023-01-17T17:25:18.751Z,4.23
2023-01-17T17:27:45.401Z,3.48
2023-01-17T17:30:12.154Z,3.08
2023-01-17T17:32:38.967Z,2.40
2023-01-17T17:35:05.964Z,3.32
2023-01-17T17:37:32.724Z,2.53
2023-01-17T17:39:59.768Z,2.64
2023-01-17T17:42:26.414Z,3.37
2023-01-17T17:44:53.068Z,5.26
2023-01-17T17:47:19.747Z,5.66
2023-01-17T17:49:46.435Z,5.84
2023-01-17T17:52:13.107Z,6.40
2023-01-17T17:54:39.774Z,7.85
2023-01-17T17:57:06.445Z,6.83
2023-01-17T17:59:33.119Z,5.30
2023-01-17T18:01:59.908Z,5.42
2023-01-17T18:04:26.647Z,6.25
2023-01-17T18:06:56.677Z,6.35
2023-01-17T18:09:23.385Z,6.11
2023-01-17T18:11:50.019Z,5.97
2023-01-17T18:14:16.731Z,6.68
2023-01-17T18:16:43.735Z,6.35
2023-01-17T18:19:15.339Z,5.02
2023-01-17T18:21:42.288Z,4.98
2023-01-17T18:24:13.457Z,4.83
2023-01-17T18:26:41.023Z,4.70
2023-01-17T18:29:08.491Z,4.95
2023-01-17T18:31:35.285Z,5.76
2023-01-17T18:34:07.028Z,7.07
2023-01-17T18:36:33.680Z,5.87
2023-01-17T18:39:00.592Z,6.83
2023-01-17T18:41:28.769Z,7.42
2023-01-17T18:43:55.531Z,6.68
2023-01-17T18:46:22.626Z,7.21
2023-01-17T18:48:49.281Z,6.35
2023-01-17T18:51:17.173Z,5.14
2023-01-17T18:53:44.694Z,5.18
2023-01-17T18:56:21.287Z,5.81
2023-01-17T18:58:48.714Z,5.89
2023-01-17T19:01:16.294Z,6.10
2023-01-17T19:03:44.562Z,6.29
2023-01-17T19:06:12.378Z,6.17
2023-01-17T19:08:39.019Z,6.51
2023-01-17T19:11:05.786Z,6.21
2023-01-17T19:13:32.979Z,7.09
2023-01-17T19:16:00.865Z,11.22
2023-01-17T19:18:27.546Z,9.56
2023-01-17T19:20:54.209Z,7.14
2023-01-17T19:23:20.868Z,9.00
2023-01-17T19:25:52.918Z,8.64
2023-01-17T19:28:19.563Z,8.92
2023-01-17T19:30:46.347Z,6.80
2023-01-17T19:33:13.001Z,5.62
2023-01-17T19:35:39.677Z,5.87
2023-01-17T19:38:06.338Z,4.71
2023-01-17T19:40:33.019Z,4.59
2023-01-17T19:42:59.650Z,4.26
2023-01-17T19:45:26.414Z,4.82
2023-01-17T19:47:53.215Z,6.27
2023-01-17T19:50:19.865Z,6.07
2023-01-17T19:52:46.588Z,6.91
2023-01-17T19:55:13.279Z,6.29
2023-01-17T19:57:39.909Z,5.54
2023-01-17T20:00:10.116Z,4.60
2023-01-17T20:02:37.909Z,3.62
2023-01-17T20:05:05.332Z,3.36
2023-01-17T20:07:31.952Z,4.81
2023-01-17T20:09:58.604Z,6.16
2023-01-17T20:12:25.341Z,5.75
2023-01-17T20:14:51.975Z,6.14
2023-01-17T20:17:18.677Z,6.14
2023-01-17T20:19:45.532Z,6.16
2023-01-17T20:22:12.326Z,5.96
2023-01-17T20:24:38.981Z,5.84
2023-01-17T20:27:05.636Z,8.83
2023-01-17T20:29:32.272Z,7.84
2023-01-17T20:31:58.961Z,3.87
2023-01-17T20:34:25.640Z,2.77
2023-01-17T20:36:54.221Z,3.43
2023-01-17T20:39:20.868Z,2.95
2023-01-17T20:41:47.619Z,2.56
2023-01-17T20:44:14.691Z,2.55
2023-01-17T20:46:41.467Z,2.55
2023-01-17T20:49:16.468Z,2.44
2023-01-17T20:51:43.800Z,2.44
2023-01-17T20:54:14.415Z,2.57
2023-01-17T20:56:41.057Z,2.95
2023-01-17T20:59:08.636Z,2.55
2023-01-17T21:01:36.192Z,6.02
2023-01-17T21:04:03.560Z,12.65
2023-01-17T21:06:30.181Z,13.16
2023-01-17T21:08:56.806Z,5.10
2023-01-17T21:11:24.829Z,3.41
2023-01-17T21:13:51.589Z,3.16
2023-01-17T21:16:19.115Z,6.70
2023-01-17T21:18:46.916Z,5.45
2023-01-17T21:21:20.956Z,4.38
2023-01-17T21:23:47.695Z,4.29
2023-01-17T21:26:14.975Z,4.49
2023-01-17T21:28:42.528Z,5.31
2023-01-17T21:31:09.495Z,5.31
2023-01-17T21:33:36.182Z,4.98
2023-01-17T21:36:06.476Z,4.69
2023-01-17T21:38:33.139Z,5.03
2023-01-17T21:40:59.795Z,4.93
2023-01-17T21:43:26.443Z,3.25
2023-01-17T21:45:53.088Z,2.12
2023-01-17T21:48:19.745Z,0.97
2023-01-17T21:50:46.382Z,0.93
2023-01-17T21:53:13.036Z,0.81
2023-01-17T21:55:39.708Z,0.58
2023-01-17T21:58:13.016Z,0.66
2023-01-17T22:00:42.695Z,0.57
2023-01-17T22:03:09.309Z,0.72
2023-01-17T22:05:35.939Z,0.72
2023-01-17T22:08:02.753Z,1.13
2023-01-17T22:10:29.413Z,1.47
2023-01-17T22:12:56.084Z,2.11
2023-01-17T22:15:22.812Z,2.10
2023-01-17T22:17:49.457Z,1.83
2023-01-17T22:20:16.312Z,1.97
2023-01-17T22:22:42.987Z,1.67
2023-01-17T22:25:09.862Z,1.50
2023-01-17T22:27:36.501Z,1.38
2023-01-17T22:30:03.129Z,1.24
2023-01-17T22:32:29.768Z,1.19
2023-01-17T22:34:56.445Z,1.34
2023-01-17T22:37:23.119Z,1.25
2023-01-17T22:39:49.761Z,0.83
2023-01-17T22:42:16.388Z,0.76
2023-01-17T22:44:43.096Z,0.58
2023-01-17T22:47:09.706Z,0.45
2023-01-17T22:49:36.338Z,1.32
2023-01-17T22:52:02.990Z,2.76
2023-01-17T22:54:29.618Z,3.79
2023-01-17T22:56:56.270Z,4.51
2023-01-17T22:59:22.911Z,4.49
2023-01-17T23:01:49.608Z,4.88
2023-01-17T23:04:16.240Z,5.76
2023-01-17T23:06:43.004Z,5.60
2023-01-17T23:09:14.362Z,5.57
2023-01-17T23:11:45.040Z,5.62
2023-01-17T23:14:12.700Z,5.21
2023-01-17T23:16:50.775Z,5.20
2023-01-17T23:19:17.437Z,5.39
2023-01-17T23:21:44.072Z,5.66
2023-01-17T23:24:10.727Z,6.71
2023-01-17T23:26:37.377Z,6.80
2023-01-17T23:29:04.002Z,6.67
2023-01-17T23:31:30.684Z,6.77
2023-01-17T23:33:57.362Z,6.98
2023-01-17T23:36:23.991Z,6.81
2023-01-17T23:38:50.617Z,6.16
2023-01-17T23:41:17.269Z,5.83
2023-01-17T23:43:43.930Z,4.89
2023-01-17T23:46:13.328Z,4.16
2023-01-17T23:48:40.085Z,3.88
2023-01-17T23:51:06.769Z,3.98
2023-01-17T23:53:34.156Z,3.26
2023-01-17T23:56:07.689Z,2.88
2023-01-17T23:58:34.338Z,2.93
